sensor_id;sensor_type;location;lat;lon;timestamp;pressure;altitude;pressure_sealevel;temperature
69186;BMP280;56298;49.246;9.410;2022-09-12T00:01:56;99602.63;;;13.58
69186;BMP280;56298;49.246;9.410;2022-09-12T00:04:22;99602.25;;;13.59
69186;BMP280;56298;49.246;9.410;2022-09-12T00:06:47;99604.47;;;13.50
69186;BMP280;56298;49.246;9.410;2022-09-12T00:09:13;99601.72;;;13.50
69186;BMP280;56298;49.246;9.410;2022-09-12T00:11:41;99597.81;;;13.51
69186;BMP280;56298;49.246;9.410;2022-09-12T00:14:08;99595.81;;;13.51
69186;BMP280;56298;49.246;9.410;2022-09-12T00:16:35;99597.03;;;13.50
69186;BMP280;56298;49.246;9.410;2022-09-12T00:19:01;99604.06;;;13.48
69186;BMP280;56298;49.246;9.410;2022-09-12T00:21:27;99599.56;;;13.39
69186;BMP280;56298;49.246;9.410;2022-09-12T00:23:52;99596.09;;;13.43
69186;BMP280;56298;49.246;9.410;2022-09-12T00:26:19;99595.31;;;13.42
69186;BMP280;56298;49.246;9.410;2022-09-12T00:28:45;99598.47;;;13.44
69186;BMP280;56298;49.246;9.410;2022-09-12T00:31:13;99595.31;;;13.42
69186;BMP280;56298;49.246;9.410;2022-09-12T00:33:39;99591.38;;;13.43
69186;BMP280;56298;49.246;9.410;2022-09-12T00:36:07;99590.09;;;13.37
69186;BMP280;56298;49.246;9.410;2022-09-12T00:38:34;99590.09;;;13.37
69186;BMP280;56298;49.246;9.410;2022-09-12T00:41:03;99593.53;;;13.30
69186;BMP280;56298;49.246;9.410;2022-09-12T00:45:56;99584.38;;;13.22
69186;BMP280;56298;49.246;9.410;2022-09-12T00:48:30;99587.97;;;13.27
69186;BMP280;56298;49.246;9.410;2022-09-12T00:50:56;99584.41;;;13.26
69186;BMP280;56298;49.246;9.410;2022-09-12T00:53:22;99587.50;;;13.24
69186;BMP280;56298;49.246;9.410;2022-09-12T00:55:49;99576.88;;;13.23
69186;BMP280;56298;49.246;9.410;2022-09-12T00:58:21;99581.47;;;13.15
69186;BMP280;56298;49.246;9.410;2022-09-12T01:00:47;99580.72;;;13.18
69186;BMP280;56298;49.246;9.410;2022-09-12T01:03:15;99579.06;;;13.14
69186;BMP280;56298;49.246;9.410;2022-09-12T01:05:47;99578.28;;;13.13
69186;BMP280;56298;49.246;9.410;2022-09-12T01:08:14;99572.78;;;13.13
69186;BMP280;56298;49.246;9.410;2022-09-12T01:10:41;99575.91;;;13.11
69186;BMP280;56298;49.246;9.410;2022-09-12T01:13:08;99573.44;;;13.06
69186;BMP280;56298;49.246;9.410;2022-09-12T01:15:36;99567.13;;;13.06
69186;BMP280;56298;49.246;9.410;2022-09-12T01:18:18;99566.28;;;13.02
69186;BMP280;56298;49.246;9.410;2022-09-12T01:23:52;99562.13;;;12.88
69186;BMP280;56298;49.246;9.410;2022-09-12T01:26:39;99553.84;;;12.88
69186;BMP280;56298;49.246;9.410;2022-09-12T01:29:38;99558.09;;;12.82
69186;BMP280;56298;49.246;9.410;2022-09-12T01:35:05;99544.59;;;12.77
69186;BMP280;56298;49.246;9.410;2022-09-12T01:37:44;99546.53;;;12.76
69186;BMP280;56298;49.246;9.410;2022-09-12T01:40:21;99540.25;;;12.76
69186;BMP280;56298;49.246;9.410;2022-09-12T01:43:09;99545.34;;;12.74
69186;BMP280;56298;49.246;9.410;2022-09-12T01:48:25;99542.50;;;12.70
69186;BMP280;56298;49.246;9.410;2022-09-12T01:50:57;99544.22;;;12.75
69186;BMP280;56298;49.246;9.410;2022-09-12T01:53:28;99538.19;;;12.69
69186;BMP280;56298;49.246;9.410;2022-09-12T01:56:02;99535.06;;;12.71
69186;BMP280;56298;49.246;9.410;2022-09-12T01:58:44;99535.22;;;12.58
69186;BMP280;56298;49.246;9.410;2022-09-12T02:01:20;99542.78;;;12.61
69186;BMP280;56298;49.246;9.410;2022-09-12T02:03:52;99541.16;;;12.60
69186;BMP280;56298;49.246;9.410;2022-09-12T02:06:25;99541.91;;;12.57
69186;BMP280;56298;49.246;9.410;2022-09-12T02:08:53;99542.97;;;12.52
69186;BMP280;56298;49.246;9.410;2022-09-12T02:11:21;99532.41;;;12.54
69186;BMP280;56298;49.246;9.410;2022-09-12T02:14:29;99540.97;;;12.49
69186;BMP280;56298;49.246;9.410;2022-09-12T02:19:21;99539.34;;;12.48
69186;BMP280;56298;49.246;9.410;2022-09-12T02:21:55;99546.47;;;12.49
69186;BMP280;56298;49.246;9.410;2022-09-12T02:24:31;99541.25;;;12.44
69186;BMP280;56298;49.246;9.410;2022-09-12T02:27:02;99539.66;;;12.43
69186;BMP280;56298;49.246;9.410;2022-09-12T02:29:29;99535.25;;;12.38
69186;BMP280;56298;49.246;9.410;2022-09-12T02:32:00;99531.03;;;12.45
69186;BMP280;56298;49.246;9.410;2022-09-12T02:37:18;99521.84;;;12.37
69186;BMP280;56298;49.246;9.410;2022-09-12T02:39:46;99531.19;;;12.32
69186;BMP280;56298;49.246;9.410;2022-09-12T02:42:12;99528.38;;;12.29
69186;BMP280;56298;49.246;9.410;2022-09-12T02:44:37;99530.25;;;12.24
69186;BMP280;56298;49.246;9.410;2022-09-12T02:47:08;99527.06;;;12.22
69186;BMP280;56298;49.246;9.410;2022-09-12T02:49:34;99529.75;;;12.19
69186;BMP280;56298;49.246;9.410;2022-09-12T02:52:01;99527.06;;;12.22
69186;BMP280;56298;49.246;9.410;2022-09-12T02:54:27;99517.59;;;12.20
69186;BMP280;56298;49.246;9.410;2022-09-12T02:56:52;99520.97;;;12.13
69186;BMP280;56298;49.246;9.410;2022-09-12T02:59:19;99520.69;;;12.18
69186;BMP280;56298;49.246;9.410;2022-09-12T03:04:45;99522.56;;;12.14
69186;BMP280;56298;49.246;9.410;2022-09-12T03:10:26;99514.03;;;12.19
69186;BMP280;56298;49.246;9.410;2022-09-12T03:16:11;99518.59;;;12.11
69186;BMP280;56298;49.246;9.410;2022-09-12T03:24:10;99523.69;;;12.09
69186;BMP280;56298;49.246;9.410;2022-09-12T03:26:49;99522.78;;;12.05
69186;BMP280;56298;49.246;9.410;2022-09-12T03:29:17;99520.34;;;12.00
69186;BMP280;56298;49.246;9.410;2022-09-12T03:31:52;99523.78;;;11.97
69186;BMP280;56298;49.246;9.410;2022-09-12T03:34:19;99517.44;;;11.93
69186;BMP280;56298;49.246;9.410;2022-09-12T03:36:45;99514.91;;;12.04
69186;BMP280;56298;49.246;9.410;2022-09-12T03:39:11;99519.59;;;12.03
69186;BMP280;56298;49.246;9.410;2022-09-12T03:41:36;99520.78;;;12.02
69186;BMP280;56298;49.246;9.410;2022-09-12T03:44:02;99521.13;;;12.01
69186;BMP280;56298;49.246;9.410;2022-09-12T03:46:27;99520.22;;;11.96
69186;BMP280;56298;49.246;9.410;2022-09-12T03:48:52;99519.28;;;11.89
69186;BMP280;56298;49.246;9.410;2022-09-12T03:51:17;99518.94;;;11.90
69186;BMP280;56298;49.246;9.410;2022-09-12T03:53:43;99515.03;;;11.91
69186;BMP280;56298;49.246;9.410;2022-09-12T03:56:09;99518.28;;;11.97
69186;BMP280;56298;49.246;9.410;2022-09-12T03:58:35;99512.44;;;11.98
69186;BMP280;56298;49.246;9.410;2022-09-12T04:01:12;99517.13;;;11.98
69186;BMP280;56298;49.246;9.410;2022-09-12T04:03:39;99514.84;;;12.00
69186;BMP280;56298;49.246;9.410;2022-09-12T04:06:05;99510.63;;;12.06
69186;BMP280;56298;49.246;9.410;2022-09-12T04:08:31;99514.28;;;12.10
69186;BMP280;56298;49.246;9.410;2022-09-12T04:11:04;99512.69;;;12.09
69186;BMP280;56298;49.246;9.410;2022-09-12T04:13:29;99510.28;;;12.08
69186;BMP280;56298;49.246;9.410;2022-09-12T04:15:56;99508.44;;;11.96
69186;BMP280;56298;49.246;9.410;2022-09-12T04:18:22;99508.53;;;12.00
69186;BMP280;56298;49.246;9.410;2022-09-12T04:20:47;99510.78;;;11.94
69186;BMP280;56298;49.246;9.410;2022-09-12T04:23:12;99512.63;;;11.90
69186;BMP280;56298;49.246;9.410;2022-09-12T04:25:37;99510.63;;;11.87
69186;BMP280;56298;49.246;9.410;2022-09-12T04:28:03;99513.38;;;11.87
69186;BMP280;56298;49.246;9.410;2022-09-12T04:30:28;99506.88;;;11.95
69186;BMP280;56298;49.246;9.410;2022-09-12T04:32:53;99505.44;;;12.01
69186;BMP280;56298;49.246;9.410;2022-09-12T04:35:18;99501.41;;;11.95
69186;BMP280;56298;49.246;9.410;2022-09-12T04:37:43;99509.22;;;11.96
69186;BMP280;56298;49.246;9.410;2022-09-12T04:40:09;99513.22;;;11.99
69186;BMP280;56298;49.246;9.410;2022-09-12T04:42:34;99512.09;;;12.00
69186;BMP280;56298;49.246;9.410;2022-09-12T04:44:59;99514.31;;;11.94
69186;BMP280;56298;49.246;9.410;2022-09-12T04:47:25;99517.44;;;11.93
69186;BMP280;56298;49.246;9.410;2022-09-12T04:49:50;99515.03;;;11.91
69186;BMP280;56298;49.246;9.410;2022-09-12T04:52:15;99507.50;;;11.88
69186;BMP280;56298;49.246;9.410;2022-09-12T04:54:40;99508.09;;;11.97
69186;BMP280;56298;49.246;9.410;2022-09-12T04:57:06;99507.72;;;11.99
69186;BMP280;56298;49.246;9.410;2022-09-12T04:59:31;99504.69;;;11.84
69186;BMP280;56298;49.246;9.410;2022-09-12T05:01:57;99507.50;;;11.88
69186;BMP280;56298;49.246;9.410;2022-09-12T05:04:22;99507.25;;;11.93
69186;BMP280;56298;49.246;9.410;2022-09-12T05:06:48;99503.84;;;12.00
69186;BMP280;56298;49.246;9.410;2022-09-12T05:09:13;99503.09;;;12.03
69186;BMP280;56298;49.246;9.410;2022-09-12T05:11:41;99504.78;;;12.08
69186;BMP280;56298;49.246;9.410;2022-09-12T05:14:07;99500.28;;;12.00
69186;BMP280;56298;49.246;9.410;2022-09-12T05:16:33;99502.59;;;11.97
69186;BMP280;56298;49.246;9.410;2022-09-12T05:18:58;99505.44;;;12.21
69186;BMP280;56298;49.246;9.410;2022-09-12T05:21:25;99503.28;;;12.10
69186;BMP280;56298;49.246;9.410;2022-09-12T05:23:52;99503.91;;;12.23
69186;BMP280;56298;49.246;9.410;2022-09-12T05:26:17;99507.97;;;12.30
69186;BMP280;56298;49.246;9.410;2022-09-12T05:28:45;99508.09;;;12.37
69186;BMP280;56298;49.246;9.410;2022-09-12T05:31:18;99511.00;;;12.44
69186;BMP280;56298;49.246;9.410;2022-09-12T05:33:46;99516.41;;;12.60
69186;BMP280;56298;49.246;9.410;2022-09-12T05:36:14;99519.84;;;12.77
69186;BMP280;56298;49.246;9.410;2022-09-12T05:38:41;99528.78;;;12.93
69186;BMP280;56298;49.246;9.410;2022-09-12T05:41:09;99529.28;;;13.22
69186;BMP280;56298;49.246;9.410;2022-09-12T05:43:38;99530.69;;;13.36
69186;BMP280;56298;49.246;9.410;2022-09-12T05:46:05;99533.06;;;13.64
69186;BMP280;56298;49.246;9.410;2022-09-12T05:48:33;99548.44;;;13.96
69186;BMP280;56298;49.246;9.410;2022-09-12T05:51:06;99534.03;;;14.44
69186;BMP280;56298;49.246;9.410;2022-09-12T05:53:33;99535.25;;;14.88
69186;BMP280;56298;49.246;9.410;2022-09-12T05:56:13;99541.63;;;14.96
69186;BMP280;56298;49.246;9.410;2022-09-12T05:58:41;99534.81;;;15.31
69186;BMP280;56298;49.246;9.410;2022-09-12T06:01:13;99532.81;;;15.95
69186;BMP280;56298;49.246;9.410;2022-09-12T06:03:44;99531.75;;;16.39
69186;BMP280;56298;49.246;9.410;2022-09-12T06:06:10;99530.59;;;17.20
69186;BMP280;56298;49.246;9.410;2022-09-12T06:08:44;99530.91;;;17.51
69186;BMP280;56298;49.246;9.410;2022-09-12T06:11:13;99529.97;;;17.94
69186;BMP280;56298;49.246;9.410;2022-09-12T06:13:39;99530.66;;;18.13
69186;BMP280;56298;49.246;9.410;2022-09-12T06:16:08;99529.03;;;18.19
69186;BMP280;56298;49.246;9.410;2022-09-12T06:18:35;99530.31;;;18.64
69186;BMP280;56298;49.246;9.410;2022-09-12T06:21:09;99528.47;;;18.92
69186;BMP280;56298;49.246;9.410;2022-09-12T06:23:35;99517.81;;;19.28
69186;BMP280;56298;49.246;9.410;2022-09-12T06:26:02;99519.34;;;19.33
69186;BMP280;56298;49.246;9.410;2022-09-12T06:28:28;99510.34;;;19.53
69186;BMP280;56298;49.246;9.410;2022-09-12T06:31:10;99519.72;;;19.66
69186;BMP280;56298;49.246;9.410;2022-09-12T06:33:38;99517.16;;;19.83
69186;BMP280;56298;49.246;9.410;2022-09-12T06:36:09;99516.44;;;19.79
69186;BMP280;56298;49.246;9.410;2022-09-12T06:38:35;99513.34;;;20.28
69186;BMP280;56298;49.246;9.410;2022-09-12T06:41:04;99512.53;;;20.51
69186;BMP280;56298;49.246;9.410;2022-09-12T06:43:32;99512.34;;;20.38
69186;BMP280;56298;49.246;9.410;2022-09-12T06:45:57;99513.94;;;20.12
69186;BMP280;56298;49.246;9.410;2022-09-12T06:48:23;99507.41;;;20.73
69186;BMP280;56298;49.246;9.410;2022-09-12T06:51:03;99508.13;;;20.77
69186;BMP280;56298;49.246;9.410;2022-09-12T06:53:29;99505.16;;;21.08
69186;BMP280;56298;49.246;9.410;2022-09-12T06:55:59;99507.19;;;21.28
69186;BMP280;56298;49.246;9.410;2022-09-12T06:58:25;99503.66;;;21.64
69186;BMP280;56298;49.246;9.410;2022-09-12T07:00:51;99506.25;;;22.08
69186;BMP280;56298;49.246;9.410;2022-09-12T07:03:16;99510.66;;;21.89
69186;BMP280;56298;49.246;9.410;2022-09-12T07:05:44;99509.41;;;22.27
69186;BMP280;56298;49.246;9.410;2022-09-12T07:08:09;99508.59;;;22.26
69186;BMP280;56298;49.246;9.410;2022-09-12T07:10:34;99508.84;;;21.99
69186;BMP280;56298;49.246;9.410;2022-09-12T07:13:00;99512.59;;;22.58
69186;BMP280;56298;49.246;9.410;2022-09-12T07:15:25;99516.09;;;22.63
69186;BMP280;56298;49.246;9.410;2022-09-12T07:17:51;99507.22;;;22.51
69186;BMP280;56298;49.246;9.410;2022-09-12T07:20:16;99505.22;;;22.35
69186;BMP280;56298;49.246;9.410;2022-09-12T07:22:41;99508.25;;;22.24
69186;BMP280;56298;49.246;9.410;2022-09-12T07:25:07;99513.03;;;21.54
69186;BMP280;56298;49.246;9.410;2022-09-12T07:27:33;99506.69;;;21.53
69186;BMP280;56298;49.246;9.410;2022-09-12T07:29:58;99502.66;;;21.91
69186;BMP280;56298;49.246;9.410;2022-09-12T07:32:24;99496.91;;;21.82
69186;BMP280;56298;49.246;9.410;2022-09-12T07:34:50;99500.94;;;22.30
69186;BMP280;56298;49.246;9.410;2022-09-12T07:37:16;99501.81;;;22.11
69186;BMP280;56298;49.246;9.410;2022-09-12T07:39:41;99504.25;;;22.09
69186;BMP280;56298;49.246;9.410;2022-09-12T07:42:07;99504.25;;;22.09
69186;BMP280;56298;49.246;9.410;2022-09-12T07:44:32;99509.84;;;22.42
69186;BMP280;56298;49.246;9.410;2022-09-12T07:46:57;99502.31;;;22.55
69186;BMP280;56298;49.246;9.410;2022-09-12T07:49:22;99508.88;;;22.49
69186;BMP280;56298;49.246;9.410;2022-09-12T07:51:48;99503.88;;;22.56
69186;BMP280;56298;49.246;9.410;2022-09-12T07:54:13;99501.31;;;22.79
69186;BMP280;56298;49.246;9.410;2022-09-12T07:56:39;99501.88;;;22.86
69186;BMP280;56298;49.246;9.410;2022-09-12T07:59:06;99497.69;;;23.08
69186;BMP280;56298;49.246;9.410;2022-09-12T08:01:31;99490.63;;;23.58
69186;BMP280;56298;49.246;9.410;2022-09-12T08:03:58;99493.38;;;23.32
69186;BMP280;56298;49.246;9.410;2022-09-12T08:06:24;99493.59;;;23.12
69186;BMP280;56298;49.246;9.410;2022-09-12T08:08:51;99495.38;;;23.19
69186;BMP280;56298;49.246;9.410;2022-09-12T08:11:19;99499.38;;;23.73
69186;BMP280;56298;49.246;9.410;2022-09-12T08:13:45;99496.91;;;23.62
69186;BMP280;56298;49.246;9.410;2022-09-12T08:16:17;99496.09;;;23.62
69186;BMP280;56298;49.246;9.410;2022-09-12T08:18:43;99502.00;;;23.38
69186;BMP280;56298;49.246;9.410;2022-09-12T08:21:12;99500.03;;;23.77
69186;BMP280;56298;49.246;9.410;2022-09-12T08:23:37;99504.88;;;23.64
69186;BMP280;56298;49.246;9.410;2022-09-12T08:26:04;99507.78;;;23.86
69186;BMP280;56298;49.246;9.410;2022-09-12T08:28:31;99497.88;;;23.69
69186;BMP280;56298;49.246;9.410;2022-09-12T08:31:05;99500.72;;;23.56
69186;BMP280;56298;49.246;9.410;2022-09-12T08:33:31;99497.78;;;23.59
69186;BMP280;56298;49.246;9.410;2022-09-12T08:36:09;99504.97;;;23.60
69186;BMP280;56298;49.246;9.410;2022-09-12T08:38:36;99503.19;;;23.79
69186;BMP280;56298;49.246;9.410;2022-09-12T08:41:13;99501.69;;;23.62
69186;BMP280;56298;49.246;9.410;2022-09-12T08:46:54;99495.75;;;23.86
69186;BMP280;56298;49.246;9.410;2022-09-12T08:49:26;99496.19;;;24.10
69186;BMP280;56298;49.246;9.410;2022-09-12T08:51:54;99492.69;;;24.32
69186;BMP280;56298;49.246;9.410;2022-09-12T08:54:25;99492.75;;;24.41
69186;BMP280;56298;49.246;9.410;2022-09-12T08:56:55;99490.78;;;24.51
69186;BMP280;56298;49.246;9.410;2022-09-12T08:59:21;99489.50;;;24.42
69186;BMP280;56298;49.246;9.410;2022-09-12T09:01:48;99488.38;;;24.40
69186;BMP280;56298;49.246;9.410;2022-09-12T09:04:27;99486.53;;;24.81
69186;BMP280;56298;49.246;9.410;2022-09-12T09:10:04;99486.47;;;24.72
69186;BMP280;56298;49.246;9.410;2022-09-12T09:12:55;99484.91;;;24.93
69186;BMP280;56298;49.246;9.410;2022-09-12T09:18:17;99480.66;;;25.11
69186;BMP280;56298;49.246;9.410;2022-09-12T09:20:51;99475.50;;;24.87
69186;BMP280;56298;49.246;9.410;2022-09-12T09:23:30;99471.53;;;24.97
69186;BMP280;56298;49.246;9.410;2022-09-12T09:26:14;99473.59;;;25.06
69186;BMP280;56298;49.246;9.410;2022-09-12T09:28:49;99464.94;;;25.63
69186;BMP280;56298;49.246;9.410;2022-09-12T09:31:17;99467.66;;;25.76
69186;BMP280;56298;49.246;9.410;2022-09-12T09:33:45;99469.13;;;25.50
69186;BMP280;56298;49.246;9.410;2022-09-12T09:39:59;99462.38;;;25.88
69186;BMP280;56298;49.246;9.410;2022-09-12T09:42:39;99451.56;;;25.77
69186;BMP280;56298;49.246;9.410;2022-09-12T09:45:13;99449.81;;;25.61
69186;BMP280;56298;49.246;9.410;2022-09-12T09:47:41;99458.44;;;25.76
69186;BMP280;56298;49.246;9.410;2022-09-12T09:50:13;99460.34;;;25.79
69186;BMP280;56298;49.246;9.410;2022-09-12T09:52:41;99458.44;;;25.76
69186;BMP280;56298;49.246;9.410;2022-09-12T09:55:12;99467.84;;;26.01
69186;BMP280;56298;49.246;9.410;2022-09-12T09:57:40;99463.28;;;25.85
69186;BMP280;56298;49.246;9.410;2022-09-12T10:00:36;99453.19;;;26.43
69186;BMP280;56298;49.246;9.410;2022-09-12T10:05:50;99453.91;;;26.90
69186;BMP280;56298;49.246;9.410;2022-09-12T10:08:35;99452.47;;;26.85
69186;BMP280;56298;49.246;9.410;2022-09-12T10:11:04;99456.88;;;26.86
69186;BMP280;56298;49.246;9.410;2022-09-12T10:13:34;99453.69;;;27.03
69186;BMP280;56298;49.246;9.410;2022-09-12T10:16:02;99446.53;;;26.93
69186;BMP280;56298;49.246;9.410;2022-09-12T10:18:40;99446.81;;;27.04
69186;BMP280;56298;49.246;9.410;2022-09-12T10:23:52;99439.41;;;27.16
69186;BMP280;56298;49.246;9.410;2022-09-12T10:26:24;99441.84;;;27.32
69186;BMP280;56298;49.246;9.410;2022-09-12T10:28:52;99440.53;;;27.43
69186;BMP280;56298;49.246;9.410;2022-09-12T10:31:26;99439.13;;;27.47
69186;BMP280;56298;49.246;9.410;2022-09-12T10:33:58;99442.47;;;27.37
69186;BMP280;56298;49.246;9.410;2022-09-12T10:36:24;99439.34;;;27.59
69186;BMP280;56298;49.246;9.410;2022-09-12T10:38:53;99437.72;;;27.91
69186;BMP280;56298;49.246;9.410;2022-09-12T10:41:19;99442.66;;;28.06
69186;BMP280;56298;49.246;9.410;2022-09-12T10:43:46;99444.56;;;28.00
69186;BMP280;56298;49.246;9.410;2022-09-12T10:48:41;99425.03;;;28.26
69186;BMP280;56298;49.246;9.410;2022-09-12T10:51:14;99426.97;;;28.20
69186;BMP280;56298;49.246;9.410;2022-09-12T10:53:52;99436.06;;;27.85
69186;BMP280;56298;49.246;9.410;2022-09-12T10:56:23;99431.72;;;27.74
69186;BMP280;56298;49.246;9.410;2022-09-12T11:01:57;99429.06;;;27.22
69186;BMP280;56298;49.246;9.410;2022-09-12T11:07:34;99430.00;;;27.53
69186;BMP280;56298;49.246;9.410;2022-09-12T11:15:58;99417.75;;;27.56
69186;BMP280;56298;49.246;9.410;2022-09-12T11:26:59;99409.81;;;27.54
69186;BMP280;56298;49.246;9.410;2022-09-12T11:40:39;99390.53;;;28.61
69186;BMP280;56298;49.246;9.410;2022-09-12T11:45:50;99383.72;;;28.53
69186;BMP280;56298;49.246;9.410;2022-09-12T11:50:56;99394.19;;;27.92
69186;BMP280;56298;49.246;9.410;2022-09-12T11:53:26;99385.66;;;27.77
69186;BMP280;56298;49.246;9.410;2022-09-12T11:55:57;99379.59;;;27.94
69186;BMP280;56298;49.246;9.410;2022-09-12T11:58:25;99380.44;;;28.24
69186;BMP280;56298;49.246;9.410;2022-09-12T12:00:56;99375.66;;;28.31
69186;BMP280;56298;49.246;9.410;2022-09-12T12:03:31;99368.94;;;28.43
69186;BMP280;56298;49.246;9.410;2022-09-12T12:06:06;99370.69;;;28.25
69186;BMP280;56298;49.246;9.410;2022-09-12T12:08:39;99360.59;;;28.34
69186;BMP280;56298;49.246;9.410;2022-09-12T12:11:06;99361.34;;;28.34
69186;BMP280;56298;49.246;9.410;2022-09-12T12:13:49;99358.03;;;28.36
69186;BMP280;56298;49.246;9.410;2022-09-12T12:16:26;99352.88;;;28.19
69186;BMP280;56298;49.246;9.410;2022-09-12T12:18:54;99358.31;;;28.08
69186;BMP280;56298;49.246;9.410;2022-09-12T12:21:39;99363.47;;;27.94
69186;BMP280;56298;49.246;9.410;2022-09-12T12:29:02;99352.97;;;27.56
69186;BMP280;56298;49.246;9.410;2022-09-12T12:31:29;99343.44;;;27.53
69186;BMP280;56298;49.246;9.410;2022-09-12T12:34:00;99342.66;;;27.53
69186;BMP280;56298;49.246;9.410;2022-09-12T12:38:54;99342.00;;;28.12
69186;BMP280;56298;49.246;9.410;2022-09-12T12:43:50;99341.47;;;28.29
69186;BMP280;56298;49.246;9.410;2022-09-12T12:46:17;99337.78;;;28.52
69186;BMP280;56298;49.246;9.410;2022-09-12T12:48:55;99334.78;;;28.56
69186;BMP280;56298;49.246;9.410;2022-09-12T12:51:29;99335.09;;;28.28
69186;BMP280;56298;49.246;9.410;2022-09-12T12:53:56;99335.56;;;28.41
69186;BMP280;56298;49.246;9.410;2022-09-12T12:56:34;99332.34;;;28.49
69186;BMP280;56298;49.246;9.410;2022-09-12T12:59:12;99332.94;;;28.23
69186;BMP280;56298;49.246;9.410;2022-09-12T13:01:50;99333.03;;;28.44
69186;BMP280;56298;49.246;9.410;2022-09-12T13:04:18;99325.09;;;28.27
69186;BMP280;56298;49.246;9.410;2022-09-12T13:07:00;99315.63;;;28.30
69186;BMP280;56298;49.246;9.410;2022-09-12T13:12:32;99312.41;;;28.22
69186;BMP280;56298;49.246;9.410;2022-09-12T13:14:59;99303.78;;;28.11
69186;BMP280;56298;49.246;9.410;2022-09-12T13:20:05;99298.72;;;28.30
69186;BMP280;56298;49.246;9.410;2022-09-12T13:22:44;99297.44;;;28.16
69186;BMP280;56298;49.246;9.410;2022-09-12T13:25:23;99288.13;;;27.95
69186;BMP280;56298;49.246;9.410;2022-09-12T13:28:36;99286.69;;;28.15
69186;BMP280;56298;49.246;9.410;2022-09-12T13:31:04;99284.50;;;27.79
69186;BMP280;56298;49.246;9.410;2022-09-12T13:33:54;99278.81;;;27.74
69186;BMP280;56298;49.246;9.410;2022-09-12T13:41:36;99268.34;;;27.50
69186;BMP280;56298;49.246;9.410;2022-09-12T13:44:08;99273.13;;;27.59
69186;BMP280;56298;49.246;9.410;2022-09-12T13:46:34;99266.31;;;27.66
69186;BMP280;56298;49.246;9.410;2022-09-12T13:49:06;99259.06;;;27.74
69186;BMP280;56298;49.246;9.410;2022-09-12T13:51:35;99254.88;;;27.69
69186;BMP280;56298;49.246;9.410;2022-09-12T13:54:02;99257.94;;;27.41
69186;BMP280;56298;49.246;9.410;2022-09-12T13:56:28;99249.06;;;27.33
69186;BMP280;56298;49.246;9.410;2022-09-12T13:58:55;99254.00;;;27.24
69186;BMP280;56298;49.246;9.410;2022-09-12T14:01:23;99254.78;;;27.24
69186;BMP280;56298;49.246;9.410;2022-09-12T14:03:55;99250.41;;;27.23
69186;BMP280;56298;49.246;9.410;2022-09-12T14:06:47;99254.72;;;27.33
69186;BMP280;56298;49.246;9.410;2022-09-12T14:09:34;99255.41;;;27.43
69186;BMP280;56298;49.246;9.410;2022-09-12T14:12:03;99243.34;;;27.43
69186;BMP280;56298;49.246;9.410;2022-09-12T14:14:32;99250.94;;;27.52
69186;BMP280;56298;49.246;9.410;2022-09-12T14:16:58;99248.38;;;27.39
69186;BMP280;56298;49.246;9.410;2022-09-12T14:19:24;99243.44;;;27.33
69186;BMP280;56298;49.246;9.410;2022-09-12T14:21:55;99250.66;;;27.10
69186;BMP280;56298;49.246;9.410;2022-09-12T14:24:21;99252.09;;;26.72
69186;BMP280;56298;49.246;9.410;2022-09-12T14:26:51;99248.88;;;26.64
69186;BMP280;56298;49.246;9.410;2022-09-12T14:29:18;99251.56;;;26.59
69186;BMP280;56298;49.246;9.410;2022-09-12T14:31:44;99242.66;;;26.60
69186;BMP280;56298;49.246;9.410;2022-09-12T14:34:17;99242.50;;;26.64
69186;BMP280;56298;49.246;9.410;2022-09-12T14:36:47;99239.56;;;26.58
69186;BMP280;56298;49.246;9.410;2022-09-12T14:39:35;99232.47;;;26.63
69186;BMP280;56298;49.246;9.410;2022-09-12T14:42:05;99231.88;;;26.59
69186;BMP280;56298;49.246;9.410;2022-09-12T14:44:32;99230.19;;;26.52
69186;BMP280;56298;49.246;9.410;2022-09-12T14:47:10;99230.50;;;26.54
69186;BMP280;56298;49.246;9.410;2022-09-12T14:49:36;99219.88;;;26.58
69186;BMP280;56298;49.246;9.410;2022-09-12T14:52:04;99221.63;;;26.46
69186;BMP280;56298;49.246;9.410;2022-09-12T14:57:00;99214.34;;;26.30
69186;BMP280;56298;49.246;9.410;2022-09-12T14:59:30;99211.81;;;26.32
69186;BMP280;56298;49.246;9.410;2022-09-12T15:02:30;99216.59;;;26.17
69186;BMP280;56298;49.246;9.410;2022-09-12T15:12:42;99208.13;;;25.65
69186;BMP280;56298;49.246;9.410;2022-09-12T15:15:16;99207.63;;;25.66
69186;BMP280;56298;49.246;9.410;2022-09-12T15:17:42;99205.31;;;25.74
69186;BMP280;56298;49.246;9.410;2022-09-12T15:20:08;99207.94;;;25.77
69186;BMP280;56298;49.246;9.410;2022-09-12T15:22:35;99203.91;;;25.60
69186;BMP280;56298;49.246;9.410;2022-09-12T15:25:01;99200.31;;;25.69
69186;BMP280;56298;49.246;9.410;2022-09-12T15:27:26;99203.72;;;25.63
69186;BMP280;56298;49.246;9.410;2022-09-12T15:29:52;99196.72;;;25.68
69186;BMP280;56298;49.246;9.410;2022-09-12T15:32:25;99195.94;;;25.58
69186;BMP280;56298;49.246;9.410;2022-09-12T15:34:51;99192.94;;;25.62
69186;BMP280;56298;49.246;9.410;2022-09-12T15:37:17;99195.63;;;25.56
69186;BMP280;56298;49.246;9.410;2022-09-12T15:39:43;99190.03;;;25.56
69186;BMP280;56298;49.246;9.410;2022-09-12T15:42:11;99193.13;;;25.58
69186;BMP280;56298;49.246;9.410;2022-09-12T15:44:37;99193.31;;;25.55
69186;BMP280;56298;49.246;9.410;2022-09-12T15:47:02;99190.50;;;25.55
69186;BMP280;56298;49.246;9.410;2022-09-12T15:49:27;99187.53;;;25.49
69186;BMP280;56298;49.246;9.410;2022-09-12T15:51:53;99186.44;;;25.46
69186;BMP280;56298;49.246;9.410;2022-09-12T15:54:18;99184.09;;;25.45
69186;BMP280;56298;49.246;9.410;2022-09-12T15:56:44;99179.75;;;25.44
69186;BMP280;56298;49.246;9.410;2022-09-12T15:59:10;99173.94;;;25.38
69186;BMP280;56298;49.246;9.410;2022-09-12T16:01:35;99176.75;;;25.29
69186;BMP280;56298;49.246;9.410;2022-09-12T16:04:01;99173.81;;;25.14
69186;BMP280;56298;49.246;9.410;2022-09-12T16:06:27;99171.47;;;25.12
69186;BMP280;56298;49.246;9.410;2022-09-12T16:08:55;99168.94;;;25.05
69186;BMP280;56298;49.246;9.410;2022-09-12T16:11:25;99158.19;;;24.94
69186;BMP280;56298;49.246;9.410;2022-09-12T16:13:51;99158.97;;;24.95
69186;BMP280;56298;49.246;9.410;2022-09-12T16:16:17;99153.06;;;24.93
69186;BMP280;56298;49.246;9.410;2022-09-12T16:18:43;99147.59;;;24.89
69186;BMP280;56298;49.246;9.410;2022-09-12T16:21:08;99150.53;;;24.85
69186;BMP280;56298;49.246;9.410;2022-09-12T16:23:34;99159.56;;;24.80